sensor_id;sensor_type;location;lat;lon;timestamp;P1;durP1;ratioP1;P2;durP2;ratioP2
31818;SDS011;18384;48.860;9.188;2024-03-08T00:02:46;29.20;;;16.80;;
31818;SDS011;18384;48.860;9.188;2024-03-08T00:05:13;27.73;;;16.37;;
31818;SDS011;18384;48.860;9.188;2024-03-08T00:07:40;32.03;;;17.25;;
31818;SDS011;18384;48.860;9.188;2024-03-08T00:10:08;30.80;;;17.75;;
31818;SDS011;18384;48.860;9.188;2024-03-08T00:12:39;44.05;;;16.87;;
31818;SDS011;18384;48.860;9.188;2024-03-08T00:15:09;30.70;;;16.52;;
31818;SDS011;18384;48.860;9.188;2024-03-08T00:17:38;28.08;;;17.00;;
31818;SDS011;18384;48.860;9.188;2024-03-08T00:20:05;28.23;;;16.40;;
31818;SDS011;18384;48.860;9.188;2024-03-08T00:22:35;30.10;;;16.12;;
31818;SDS011;18384;48.860;9.188;2024-03-08T00:25:05;28.27;;;16.48;;
31818;SDS011;18384;48.860;9.188;2024-03-08T00:27:37;29.70;;;16.60;;
31818;SDS011;18384;48.860;9.188;2024-03-08T00:32:30;28.75;;;15.90;;
31818;SDS011;18384;48.860;9.188;2024-03-08T00:37:23;26.58;;;15.55;;
31818;SDS011;18384;48.860;9.188;2024-03-08T00:39:50;30.60;;;17.25;;
31818;SDS011;18384;48.860;9.188;2024-03-08T00:42:17;28.55;;;16.25;;
31818;SDS011;18384;48.860;9.188;2024-03-08T00:44:44;31.35;;;16.35;;
31818;SDS011;18384;48.860;9.188;2024-03-08T00:47:10;33.17;;;17.80;;
31818;SDS011;18384;48.860;9.188;2024-03-08T00:52:04;27.47;;;15.33;;
31818;SDS011;18384;48.860;9.188;2024-03-08T00:54:34;30.25;;;17.05;;
31818;SDS011;18384;48.860;9.188;2024-03-08T00:57:09;30.70;;;15.73;;
31818;SDS011;18384;48.860;9.188;2024-03-08T00:59:38;27.80;;;15.77;;
31818;SDS011;18384;48.860;9.188;2024-03-08T01:02:04;27.87;;;16.77;;
31818;SDS011;18384;48.860;9.188;2024-03-08T01:04:31;29.48;;;16.95;;
31818;SDS011;18384;48.860;9.188;2024-03-08T01:06:58;27.00;;;14.82;;
31818;SDS011;18384;48.860;9.188;2024-03-08T01:09:25;28.67;;;16.17;;
31818;SDS011;18384;48.860;9.188;2024-03-08T01:11:55;28.25;;;15.90;;
31818;SDS011;18384;48.860;9.188;2024-03-08T01:14:22;27.70;;;16.45;;
31818;SDS011;18384;48.860;9.188;2024-03-08T01:16:49;28.75;;;16.33;;
31818;SDS011;18384;48.860;9.188;2024-03-08T01:19:15;27.35;;;15.38;;
31818;SDS011;18384;48.860;9.188;2024-03-08T01:21:41;26.08;;;15.35;;
31818;SDS011;18384;48.860;9.188;2024-03-08T01:24:08;30.45;;;17.95;;
31818;SDS011;18384;48.860;9.188;2024-03-08T01:29:00;30.00;;;16.40;;
31818;SDS011;18384;48.860;9.188;2024-03-08T01:31:30;30.92;;;17.17;;
31818;SDS011;18384;48.860;9.188;2024-03-08T01:33:58;29.08;;;16.85;;
31818;SDS011;18384;48.860;9.188;2024-03-08T01:38:51;25.62;;;15.82;;
31818;SDS011;18384;48.860;9.188;2024-03-08T01:41:17;32.80;;;16.10;;
31818;SDS011;18384;48.860;9.188;2024-03-08T01:43:44;30.62;;;16.42;;
31818;SDS011;18384;48.860;9.188;2024-03-08T01:46:10;33.33;;;17.05;;
31818;SDS011;18384;48.860;9.188;2024-03-08T01:48:41;30.20;;;16.35;;
31818;SDS011;18384;48.860;9.188;2024-03-08T01:51:08;30.80;;;16.65;;
31818;SDS011;18384;48.860;9.188;2024-03-08T01:53:37;30.42;;;17.95;;
31818;SDS011;18384;48.860;9.188;2024-03-08T01:56:04;34.58;;;17.83;;
31818;SDS011;18384;48.860;9.188;2024-03-08T01:58:32;35.17;;;19.00;;
31818;SDS011;18384;48.860;9.188;2024-03-08T02:00:59;31.10;;;17.17;;
31818;SDS011;18384;48.860;9.188;2024-03-08T02:03:25;30.77;;;17.27;;
31818;SDS011;18384;48.860;9.188;2024-03-08T02:05:51;31.05;;;16.80;;
31818;SDS011;18384;48.860;9.188;2024-03-08T02:08:18;35.35;;;16.90;;
31818;SDS011;18384;48.860;9.188;2024-03-08T02:10:47;33.17;;;17.15;;
31818;SDS011;18384;48.860;9.188;2024-03-08T02:13:14;30.30;;;17.12;;
31818;SDS011;18384;48.860;9.188;2024-03-08T02:15:50;30.83;;;17.77;;
31818;SDS011;18384;48.860;9.188;2024-03-08T02:18:22;29.92;;;17.20;;
31818;SDS011;18384;48.860;9.188;2024-03-08T02:20:55;33.13;;;17.08;;
31818;SDS011;18384;48.860;9.188;2024-03-08T02:23:25;30.55;;;16.60;;
31818;SDS011;18384;48.860;9.188;2024-03-08T02:25:52;29.65;;;15.88;;
31818;SDS011;18384;48.860;9.188;2024-03-08T02:28:20;29.63;;;15.23;;
31818;SDS011;18384;48.860;9.188;2024-03-08T02:30:47;28.55;;;16.73;;
31818;SDS011;18384;48.860;9.188;2024-03-08T02:33:14;30.80;;;15.98;;
31818;SDS011;18384;48.860;9.188;2024-03-08T02:35:42;28.67;;;16.15;;
31818;SDS011;18384;48.860;9.188;2024-03-08T02:38:16;27.00;;;15.75;;
31818;SDS011;18384;48.860;9.188;2024-03-08T02:40:45;30.37;;;15.82;;
31818;SDS011;18384;48.860;9.188;2024-03-08T02:43:13;28.77;;;16.20;;
31818;SDS011;18384;48.860;9.188;2024-03-08T02:45:41;28.45;;;15.35;;
31818;SDS011;18384;48.860;9.188;2024-03-08T02:48:07;26.00;;;15.30;;
31818;SDS011;18384;48.860;9.188;2024-03-08T02:50:34;26.40;;;15.57;;
31818;SDS011;18384;48.860;9.188;2024-03-08T02:53:01;28.55;;;15.95;;
31818;SDS011;18384;48.860;9.188;2024-03-08T02:55:28;24.83;;;14.77;;
31818;SDS011;18384;48.860;9.188;2024-03-08T02:57:54;28.08;;;16.08;;
31818;SDS011;18384;48.860;9.188;2024-03-08T03:00:21;27.70;;;16.00;;
31818;SDS011;18384;48.860;9.188;2024-03-08T03:02:51;32.40;;;16.10;;
31818;SDS011;18384;48.860;9.188;2024-03-08T03:05:20;26.48;;;15.23;;
31818;SDS011;18384;48.860;9.188;2024-03-08T03:07:47;25.95;;;15.98;;
31818;SDS011;18384;48.860;9.188;2024-03-08T03:10:14;26.40;;;15.32;;
31818;SDS011;18384;48.860;9.188;2024-03-08T03:12:42;30.65;;;15.63;;
31818;SDS011;18384;48.860;9.188;2024-03-08T03:17:35;28.73;;;15.07;;
31818;SDS011;18384;48.860;9.188;2024-03-08T03:20:01;26.85;;;15.02;;
31818;SDS011;18384;48.860;9.188;2024-03-08T03:22:34;24.75;;;14.07;;
31818;SDS011;18384;48.860;9.188;2024-03-08T03:25:00;25.23;;;14.18;;
31818;SDS011;18384;48.860;9.188;2024-03-08T03:27:28;28.95;;;14.45;;
31818;SDS011;18384;48.860;9.188;2024-03-08T03:29:55;27.13;;;14.82;;
31818;SDS011;18384;48.860;9.188;2024-03-08T03:32:22;25.62;;;14.60;;
31818;SDS011;18384;48.860;9.188;2024-03-08T03:34:49;24.35;;;13.88;;
31818;SDS011;18384;48.860;9.188;2024-03-08T03:37:21;24.15;;;13.60;;
31818;SDS011;18384;48.860;9.188;2024-03-08T03:39:48;26.83;;;14.48;;
31818;SDS011;18384;48.860;9.188;2024-03-08T03:42:14;25.83;;;15.43;;
31818;SDS011;18384;48.860;9.188;2024-03-08T03:44:43;24.30;;;13.62;;
31818;SDS011;18384;48.860;9.188;2024-03-08T03:47:12;26.48;;;15.55;;
31818;SDS011;18384;48.860;9.188;2024-03-08T03:49:40;27.48;;;15.10;;
31818;SDS011;18384;48.860;9.188;2024-03-08T03:52:07;24.45;;;14.73;;
31818;SDS011;18384;48.860;9.188;2024-03-08T03:54:33;29.25;;;14.87;;
31818;SDS011;18384;48.860;9.188;2024-03-08T03:56:59;23.85;;;14.23;;
31818;SDS011;18384;48.860;9.188;2024-03-08T03:59:25;25.50;;;14.20;;
31818;SDS011;18384;48.860;9.188;2024-03-08T04:01:52;26.77;;;15.38;;
31818;SDS011;18384;48.860;9.188;2024-03-08T04:04:19;27.08;;;14.98;;
31818;SDS011;18384;48.860;9.188;2024-03-08T04:06:49;25.10;;;14.48;;
31818;SDS011;18384;48.860;9.188;2024-03-08T04:11:44;29.42;;;15.52;;
31818;SDS011;18384;48.860;9.188;2024-03-08T04:16:37;29.60;;;15.02;;
31818;SDS011;18384;48.860;9.188;2024-03-08T04:19:03;27.30;;;14.57;;
31818;SDS011;18384;48.860;9.188;2024-03-08T04:21:29;25.37;;;14.45;;
31818;SDS011;18384;48.860;9.188;2024-03-08T04:23:56;24.87;;;13.60;;
31818;SDS011;18384;48.860;9.188;2024-03-08T04:26:22;22.13;;;14.13;;
31818;SDS011;18384;48.860;9.188;2024-03-08T04:28:48;24.25;;;14.05;;
31818;SDS011;18384;48.860;9.188;2024-03-08T04:31:14;25.37;;;14.25;;
31818;SDS011;18384;48.860;9.188;2024-03-08T04:33:41;24.27;;;14.32;;
31818;SDS011;18384;48.860;9.188;2024-03-08T04:36:07;24.80;;;14.73;;
31818;SDS011;18384;48.860;9.188;2024-03-08T04:40:59;22.62;;;13.40;;
31818;SDS011;18384;48.860;9.188;2024-03-08T04:43:33;28.55;;;13.88;;
31818;SDS011;18384;48.860;9.188;2024-03-08T04:46:12;24.87;;;14.20;;
31818;SDS011;18384;48.860;9.188;2024-03-08T04:48:38;25.62;;;14.10;;
31818;SDS011;18384;48.860;9.188;2024-03-08T04:51:13;23.15;;;13.50;;
31818;SDS011;18384;48.860;9.188;2024-03-08T04:53:43;26.60;;;14.48;;
31818;SDS011;18384;48.860;9.188;2024-03-08T04:56:10;26.45;;;14.90;;
31818;SDS011;18384;48.860;9.188;2024-03-08T04:58:37;27.52;;;14.23;;
31818;SDS011;18384;48.860;9.188;2024-03-08T05:01:06;25.52;;;14.40;;
31818;SDS011;18384;48.860;9.188;2024-03-08T05:03:40;25.90;;;14.55;;
31818;SDS011;18384;48.860;9.188;2024-03-08T05:06:06;26.85;;;14.60;;
31818;SDS011;18384;48.860;9.188;2024-03-08T05:08:33;24.77;;;14.45;;
31818;SDS011;18384;48.860;9.188;2024-03-08T05:11:00;24.45;;;13.35;;
31818;SDS011;18384;48.860;9.188;2024-03-08T05:13:30;25.23;;;13.95;;
31818;SDS011;18384;48.860;9.188;2024-03-08T05:15:56;29.25;;;15.05;;
31818;SDS011;18384;48.860;9.188;2024-03-08T05:18:25;26.00;;;15.52;;
31818;SDS011;18384;48.860;9.188;2024-03-08T05:20:53;24.85;;;14.60;;
31818;SDS011;18384;48.860;9.188;2024-03-08T05:23:19;25.15;;;14.23;;
31818;SDS011;18384;48.860;9.188;2024-03-08T05:25:47;28.48;;;15.60;;
31818;SDS011;18384;48.860;9.188;2024-03-08T05:28:15;30.37;;;14.82;;
31818;SDS011;18384;48.860;9.188;2024-03-08T05:30:41;27.80;;;15.15;;
31818;SDS011;18384;48.860;9.188;2024-03-08T05:33:14;32.20;;;14.82;;
31818;SDS011;18384;48.860;9.188;2024-03-08T05:35:40;24.05;;;13.85;;
31818;SDS011;18384;48.860;9.188;2024-03-08T05:38:06;25.55;;;14.18;;
31818;SDS011;18384;48.860;9.188;2024-03-08T05:40:33;34.05;;;14.85;;
31818;SDS011;18384;48.860;9.188;2024-03-08T05:45:25;27.08;;;14.60;;
31818;SDS011;18384;48.860;9.188;2024-03-08T05:50:17;29.08;;;14.95;;
31818;SDS011;18384;48.860;9.188;2024-03-08T05:52:44;25.90;;;14.77;;
31818;SDS011;18384;48.860;9.188;2024-03-08T05:55:13;28.23;;;15.30;;
31818;SDS011;18384;48.860;9.188;2024-03-08T05:57:40;26.87;;;15.80;;
31818;SDS011;18384;48.860;9.188;2024-03-08T06:00:10;28.95;;;15.55;;
31818;SDS011;18384;48.860;9.188;2024-03-08T06:02:37;29.23;;;14.85;;
31818;SDS011;18384;48.860;9.188;2024-03-08T06:05:09;26.62;;;15.25;;
31818;SDS011;18384;48.860;9.188;2024-03-08T06:07:36;27.25;;;14.63;;
31818;SDS011;18384;48.860;9.188;2024-03-08T06:10:07;29.85;;;16.20;;
31818;SDS011;18384;48.860;9.188;2024-03-08T06:12:38;27.23;;;15.38;;
31818;SDS011;18384;48.860;9.188;2024-03-08T06:15:07;31.87;;;16.25;;
31818;SDS011;18384;48.860;9.188;2024-03-08T06:17:35;27.95;;;16.02;;
31818;SDS011;18384;48.860;9.188;2024-03-08T06:20:02;28.60;;;15.85;;
31818;SDS011;18384;48.860;9.188;2024-03-08T06:22:30;34.88;;;16.12;;
31818;SDS011;18384;48.860;9.188;2024-03-08T06:24:56;31.83;;;16.92;;
31818;SDS011;18384;48.860;9.188;2024-03-08T06:27:43;27.65;;;16.67;;
31818;SDS011;18384;48.860;9.188;2024-03-08T06:30:12;32.60;;;17.02;;
31818;SDS011;18384;48.860;9.188;2024-03-08T06:32:41;28.15;;;15.98;;
31818;SDS011;18384;48.860;9.188;2024-03-08T06:35:08;28.85;;;16.40;;
31818;SDS011;18384;48.860;9.188;2024-03-08T06:37:36;28.30;;;16.50;;
31818;SDS011;18384;48.860;9.188;2024-03-08T06:40:02;28.42;;;17.00;;
31818;SDS011;18384;48.860;9.188;2024-03-08T06:42:29;26.85;;;16.02;;
31818;SDS011;18384;48.860;9.188;2024-03-08T06:45:00;31.00;;;17.27;;
31818;SDS011;18384;48.860;9.188;2024-03-08T06:47:31;31.85;;;16.83;;
31818;SDS011;18384;48.860;9.188;2024-03-08T06:50:02;30.27;;;17.23;;
31818;SDS011;18384;48.860;9.188;2024-03-08T06:52:29;28.95;;;17.20;;
31818;SDS011;18384;48.860;9.188;2024-03-08T06:54:55;33.60;;;17.37;;
31818;SDS011;18384;48.860;9.188;2024-03-08T06:57:22;30.08;;;16.48;;
31818;SDS011;18384;48.860;9.188;2024-03-08T06:59:48;30.95;;;16.48;;
31818;SDS011;18384;48.860;9.188;2024-03-08T07:02:15;27.30;;;15.65;;
31818;SDS011;18384;48.860;9.188;2024-03-08T07:04:42;27.62;;;16.58;;
31818;SDS011;18384;48.860;9.188;2024-03-08T07:07:08;27.15;;;17.08;;
31818;SDS011;18384;48.860;9.188;2024-03-08T07:09:35;29.23;;;16.65;;
31818;SDS011;18384;48.860;9.188;2024-03-08T07:12:02;32.53;;;16.87;;
31818;SDS011;18384;48.860;9.188;2024-03-08T07:14:29;32.28;;;17.67;;
31818;SDS011;18384;48.860;9.188;2024-03-08T07:16:56;29.70;;;16.50;;
31818;SDS011;18384;48.860;9.188;2024-03-08T07:19:22;37.75;;;17.23;;
31818;SDS011;18384;48.860;9.188;2024-03-08T07:21:49;30.83;;;17.02;;
31818;SDS011;18384;48.860;9.188;2024-03-08T07:24:15;28.58;;;16.42;;
31818;SDS011;18384;48.860;9.188;2024-03-08T07:27:00;33.22;;;16.98;;
31818;SDS011;18384;48.860;9.188;2024-03-08T07:29:26;32.90;;;17.35;;
31818;SDS011;18384;48.860;9.188;2024-03-08T07:31:53;31.77;;;17.55;;
31818;SDS011;18384;48.860;9.188;2024-03-08T07:34:52;32.25;;;17.12;;
31818;SDS011;18384;48.860;9.188;2024-03-08T07:37:18;27.33;;;15.77;;
31818;SDS011;18384;48.860;9.188;2024-03-08T07:39:45;32.25;;;16.55;;
31818;SDS011;18384;48.860;9.188;2024-03-08T07:42:11;26.40;;;15.50;;
31818;SDS011;18384;48.860;9.188;2024-03-08T07:44:38;34.30;;;17.55;;
31818;SDS011;18384;48.860;9.188;2024-03-08T07:47:05;29.52;;;16.60;;
31818;SDS011;18384;48.860;9.188;2024-03-08T07:49:34;28.23;;;16.08;;
31818;SDS011;18384;48.860;9.188;2024-03-08T07:52:03;27.90;;;15.95;;
31818;SDS011;18384;48.860;9.188;2024-03-08T07:54:30;28.77;;;16.73;;
31818;SDS011;18384;48.860;9.188;2024-03-08T07:56:56;32.92;;;17.15;;
31818;SDS011;18384;48.860;9.188;2024-03-08T07:59:22;34.45;;;16.37;;
31818;SDS011;18384;48.860;9.188;2024-03-08T08:01:48;30.70;;;16.80;;
31818;SDS011;18384;48.860;9.188;2024-03-08T08:04:14;32.17;;;18.33;;
31818;SDS011;18384;48.860;9.188;2024-03-08T08:06:43;33.35;;;18.45;;
31818;SDS011;18384;48.860;9.188;2024-03-08T08:09:09;33.70;;;17.80;;
31818;SDS011;18384;48.860;9.188;2024-03-08T08:11:42;38.95;;;19.92;;
31818;SDS011;18384;48.860;9.188;2024-03-08T08:14:10;30.12;;;17.33;;
31818;SDS011;18384;48.860;9.188;2024-03-08T08:16:36;32.70;;;17.67;;
31818;SDS011;18384;48.860;9.188;2024-03-08T08:19:03;29.12;;;16.55;;
31818;SDS011;18384;48.860;9.188;2024-03-08T08:21:35;29.63;;;15.40;;
31818;SDS011;18384;48.860;9.188;2024-03-08T08:24:05;30.25;;;17.33;;
31818;SDS011;18384;48.860;9.188;2024-03-08T08:26:31;27.05;;;16.00;;
31818;SDS011;18384;48.860;9.188;2024-03-08T08:29:02;28.40;;;16.50;;
31818;SDS011;18384;48.860;9.188;2024-03-08T08:31:28;29.45;;;15.32;;
31818;SDS011;18384;48.860;9.188;2024-03-08T08:33:54;26.50;;;16.33;;
31818;SDS011;18384;48.860;9.188;2024-03-08T08:36:25;29.17;;;15.25;;
31818;SDS011;18384;48.860;9.188;2024-03-08T08:38:51;24.85;;;15.07;;
31818;SDS011;18384;48.860;9.188;2024-03-08T08:41:21;27.50;;;14.63;;
31818;SDS011;18384;48.860;9.188;2024-03-08T08:46:17;26.80;;;14.20;;
31818;SDS011;18384;48.860;9.188;2024-03-08T08:48:44;28.80;;;16.30;;
31818;SDS011;18384;48.860;9.188;2024-03-08T08:53:40;31.17;;;15.50;;
31818;SDS011;18384;48.860;9.188;2024-03-08T08:56:13;28.67;;;16.98;;
31818;SDS011;18384;48.860;9.188;2024-03-08T08:58:40;29.83;;;16.92;;
31818;SDS011;18384;48.860;9.188;2024-03-08T09:01:07;29.20;;;15.60;;
31818;SDS011;18384;48.860;9.188;2024-03-08T09:03:35;26.50;;;16.15;;
31818;SDS011;18384;48.860;9.188;2024-03-08T09:06:03;27.17;;;16.00;;
31818;SDS011;18384;48.860;9.188;2024-03-08T09:08:30;26.83;;;15.98;;
31818;SDS011;18384;48.860;9.188;2024-03-08T09:10:57;26.77;;;15.52;;
31818;SDS011;18384;48.860;9.188;2024-03-08T09:13:26;27.33;;;14.48;;
31818;SDS011;18384;48.860;9.188;2024-03-08T09:15:52;30.37;;;15.55;;
31818;SDS011;18384;48.860;9.188;2024-03-08T09:18:19;30.98;;;15.90;;
31818;SDS011;18384;48.860;9.188;2024-03-08T09:20:45;27.42;;;15.63;;
31818;SDS011;18384;48.860;9.188;2024-03-08T09:23:12;24.95;;;15.35;;
31818;SDS011;18384;48.860;9.188;2024-03-08T09:25:40;26.45;;;14.43;;
31818;SDS011;18384;48.860;9.188;2024-03-08T09:28:06;29.27;;;14.90;;
31818;SDS011;18384;48.860;9.188;2024-03-08T09:30:32;28.70;;;14.93;;
31818;SDS011;18384;48.860;9.188;2024-03-08T09:33:00;22.67;;;14.10;;
31818;SDS011;18384;48.860;9.188;2024-03-08T09:35:27;28.12;;;15.20;;
31818;SDS011;18384;48.860;9.188;2024-03-08T09:37:55;31.55;;;15.82;;
31818;SDS011;18384;48.860;9.188;2024-03-08T09:40:21;27.35;;;14.43;;
31818;SDS011;18384;48.860;9.188;2024-03-08T09:42:51;25.67;;;15.00;;
31818;SDS011;18384;48.860;9.188;2024-03-08T09:45:17;28.80;;;15.50;;
31818;SDS011;18384;48.860;9.188;2024-03-08T09:47:49;27.37;;;16.15;;
31818;SDS011;18384;48.860;9.188;2024-03-08T09:52:43;27.73;;;14.87;;
31818;SDS011;18384;48.860;9.188;2024-03-08T09:55:12;25.10;;;14.43;;
31818;SDS011;18384;48.860;9.188;2024-03-08T09:57:39;25.95;;;15.13;;
31818;SDS011;18384;48.860;9.188;2024-03-08T10:00:27;24.37;;;14.43;;
31818;SDS011;18384;48.860;9.188;2024-03-08T10:03:00;29.40;;;13.98;;
31818;SDS011;18384;48.860;9.188;2024-03-08T10:05:28;28.27;;;15.30;;
31818;SDS011;18384;48.860;9.188;2024-03-08T10:07:58;25.98;;;14.48;;
31818;SDS011;18384;48.860;9.188;2024-03-08T10:10:24;26.30;;;14.27;;
31818;SDS011;18384;48.860;9.188;2024-03-08T10:12:50;24.65;;;14.70;;
31818;SDS011;18384;48.860;9.188;2024-03-08T10:15:17;25.77;;;13.48;;
31818;SDS011;18384;48.860;9.188;2024-03-08T10:17:47;26.08;;;14.65;;
31818;SDS011;18384;48.860;9.188;2024-03-08T10:20:17;26.35;;;14.27;;
31818;SDS011;18384;48.860;9.188;2024-03-08T10:22:46;27.20;;;14.38;;
31818;SDS011;18384;48.860;9.188;2024-03-08T10:25:16;30.42;;;13.95;;
31818;SDS011;18384;48.860;9.188;2024-03-08T10:27:42;27.58;;;15.02;;
31818;SDS011;18384;48.860;9.188;2024-03-08T10:30:15;24.75;;;14.00;;
31818;SDS011;18384;48.860;9.188;2024-03-08T10:32:47;23.42;;;13.75;;
31818;SDS011;18384;48.860;9.188;2024-03-08T10:35:14;30.83;;;14.95;;
31818;SDS011;18384;48.860;9.188;2024-03-08T10:37:45;25.15;;;13.75;;
31818;SDS011;18384;48.860;9.188;2024-03-08T10:40:18;24.70;;;13.35;;
31818;SDS011;18384;48.860;9.188;2024-03-08T10:42:55;26.87;;;14.38;;
31818;SDS011;18384;48.860;9.188;2024-03-08T10:45:36;28.90;;;15.05;;
31818;SDS011;18384;48.860;9.188;2024-03-08T10:48:28;26.70;;;14.02;;
31818;SDS011;18384;48.860;9.188;2024-03-08T10:51:04;29.10;;;14.85;;
31818;SDS011;18384;48.860;9.188;2024-03-08T10:53:32;23.55;;;13.70;;
31818;SDS011;18384;48.860;9.188;2024-03-08T10:56:02;28.05;;;14.00;;
31818;SDS011;18384;48.860;9.188;2024-03-08T10:58:30;27.73;;;14.90;;
31818;SDS011;18384;48.860;9.188;2024-03-08T11:00:57;26.33;;;14.65;;
31818;SDS011;18384;48.860;9.188;2024-03-08T11:03:43;30.05;;;15.43;;
31818;SDS011;18384;48.860;9.188;2024-03-08T11:06:22;28.87;;;16.23;;
31818;SDS011;18384;48.860;9.188;2024-03-08T11:09:32;30.05;;;14.48;;
31818;SDS011;18384;48.860;9.188;2024-03-08T11:12:23;28.92;;;14.40;;
31818;SDS011;18384;48.860;9.188;2024-03-08T11:15:11;22.75;;;13.65;;
31818;SDS011;18384;48.860;9.188;2024-03-08T11:17:47;23.95;;;14.43;;
31818;SDS011;18384;48.860;9.188;2024-03-08T11:20:17;26.90;;;14.98;;
31818;SDS011;18384;48.860;9.188;2024-03-08T11:22:52;27.20;;;14.35;;
31818;SDS011;18384;48.860;9.188;2024-03-08T11:25:39;28.12;;;14.90;;
31818;SDS011;18384;48.860;9.188;2024-03-08T11:28:09;27.33;;;14.68;;
31818;SDS011;18384;48.860;9.188;2024-03-08T11:31:26;30.77;;;16.53;;
31818;SDS011;18384;48.860;9.188;2024-03-08T11:33:53;26.67;;;13.88;;
31818;SDS011;18384;48.860;9.188;2024-03-08T11:38:50;23.52;;;13.88;;
31818;SDS011;18384;48.860;9.188;2024-03-08T11:41:19;35.05;;;16.60;;
31818;SDS011;18384;48.860;9.188;2024-03-08T11:43:48;30.95;;;16.12;;
31818;SDS011;18384;48.860;9.188;2024-03-08T11:46:24;32.97;;;15.80;;
31818;SDS011;18384;48.860;9.188;2024-03-08T11:48:54;29.30;;;15.10;;
31818;SDS011;18384;48.860;9.188;2024-03-08T11:51:23;30.50;;;15.77;;
31818;SDS011;18384;48.860;9.188;2024-03-08T11:53:49;32.80;;;16.65;;
31818;SDS011;18384;48.860;9.188;2024-03-08T11:56:16;28.40;;;14.65;;
31818;SDS011;18384;48.860;9.188;2024-03-08T11:58:52;30.90;;;15.73;;
31818;SDS011;18384;48.860;9.188;2024-03-08T12:01:23;29.23;;;15.95;;
31818;SDS011;18384;48.860;9.188;2024-03-08T12:03:54;29.90;;;16.23;;
31818;SDS011;18384;48.860;9.188;2024-03-08T12:06:25;28.23;;;15.25;;
31818;SDS011;18384;48.860;9.188;2024-03-08T12:08:52;27.13;;;15.00;;
31818;SDS011;18384;48.860;9.188;2024-03-08T12:11:19;30.15;;;15.70;;
31818;SDS011;18384;48.860;9.188;2024-03-08T12:13:57;30.45;;;16.40;;
31818;SDS011;18384;48.860;9.188;2024-03-08T12:16:23;28.98;;;15.07;;
31818;SDS011;18384;48.860;9.188;2024-03-08T12:18:51;30.58;;;15.90;;
31818;SDS011;18384;48.860;9.188;2024-03-08T12:21:18;28.15;;;15.48;;
31818;SDS011;18384;48.860;9.188;2024-03-08T12:24:06;31.85;;;16.05;;
31818;SDS011;18384;48.860;9.188;2024-03-08T12:26:37;34.08;;;15.98;;
31818;SDS011;18384;48.860;9.188;2024-03-08T12:29:14;27.52;;;15.68;;
31818;SDS011;18384;48.860;9.188;2024-03-08T12:31:53;32.50;;;16.87;;
31818;SDS011;18384;48.860;9.188;2024-03-08T12:34:23;29.55;;;15.70;;
31818;SDS011;18384;48.860;9.188;2024-03-08T12:36:50;30.37;;;15.38;;
31818;SDS011;18384;48.860;9.188;2024-03-08T12:39:19;33.08;;;15.90;;
31818;SDS011;18384;48.860;9.188;2024-03-08T12:41:53;33.72;;;16.23;;
31818;SDS011;18384;48.860;9.188;2024-03-08T12:44:20;30.48;;;16.02;;
31818;SDS011;18384;48.860;9.188;2024-03-08T12:46:50;32.50;;;16.48;;
31818;SDS011;18384;48.860;9.188;2024-03-08T12:49:16;30.10;;;15.68;;
31818;SDS011;18384;48.860;9.188;2024-03-08T12:51:45;30.77;;;16.08;;
31818;SDS011;18384;48.860;9.188;2024-03-08T12:54:12;32.83;;;16.98;;
31818;SDS011;18384;48.860;9.188;2024-03-08T12:56:38;31.52;;;16.87;;
31818;SDS011;18384;48.860;9.188;2024-03-08T12:59:05;29.75;;;16.02;;
31818;SDS011;18384;48.860;9.188;2024-03-08T13:01:33;34.85;;;16.02;;
31818;SDS011;18384;48.860;9.188;2024-03-08T13:04:02;33.55;;;16.52;;
31818;SDS011;18384;48.860;9.188;2024-03-08T13:06:32;31.35;;;16.75;;
31818;SDS011;18384;48.860;9.188;2024-03-08T13:08:59;32.63;;;15.90;;
31818;SDS011;18384;48.860;9.188;2024-03-08T13:11:30;31.35;;;16.30;;
31818;SDS011;18384;48.860;9.188;2024-03-08T13:14:05;27.55;;;15.27;;
31818;SDS011;18384;48.860;9.188;2024-03-08T13:16:32;31.35;;;16.20;;
31818;SDS011;18384;48.860;9.188;2024-03-08T13:18:59;28.17;;;15.60;;
31818;SDS011;18384;48.860;9.188;2024-03-08T13:21:26;36.65;;;17.12;;
31818;SDS011;18384;48.860;9.188;2024-03-08T13:23:52;32.13;;;16.00;;
31818;SDS011;18384;48.860;9.188;2024-03-08T13:26:18;28.25;;;16.35;;
31818;SDS011;18384;48.860;9.188;2024-03-08T13:28:48;34.17;;;18.12;;
31818;SDS011;18384;48.860;9.188;2024-03-08T13:31:18;32.38;;;16.35;;
31818;SDS011;18384;48.860;9.188;2024-03-08T13:33:48;31.58;;;17.52;;
31818;SDS011;18384;48.860;9.188;2024-03-08T13:36:15;29.08;;;15.52;;
31818;SDS011;18384;48.860;9.188;2024-03-08T13:38:48;31.37;;;16.50;;
31818;SDS011;18384;48.860;9.188;2024-03-08T13:41:14;31.92;;;16.40;;
31818;SDS011;18384;48.860;9.188;2024-03-08T13:43:42;34.10;;;15.23;;
31818;SDS011;18384;48.860;9.188;2024-03-08T13:46:15;29.10;;;14.73;;
31818;SDS011;18384;48.860;9.188;2024-03-08T13:48:42;31.33;;;16.58;;
31818;SDS011;18384;48.860;9.188;2024-03-08T13:51:08;31.27;;;15.07;;
31818;SDS011;18384;48.860;9.188;2024-03-08T13:53:40;28.33;;;13.85;;
31818;SDS011;18384;48.860;9.188;2024-03-08T13:56:06;29.92;;;15.27;;
31818;SDS011;18384;48.860;9.188;2024-03-08T13:58:35;28.15;;;15.27;;
31818;SDS011;18384;48.860;9.188;2024-03-08T14:01:01;29.58;;;14.65;;
31818;SDS011;18384;48.860;9.188;2024-03-08T14:03:30;27.10;;;14.77;;
31818;SDS011;18384;48.860;9.188;2024-03-08T14:05:57;28.77;;;16.50;;
31818;SDS011;18384;48.860;9.188;2024-03-08T14:08:25;24.60;;;14.70;;
31818;SDS011;18384;48.860;9.188;2024-03-08T14:10:52;30.05;;;13.88;;
31818;SDS011;18384;48.860;9.188;2024-03-08T14:13:19;28.98;;;15.15;;
31818;SDS011;18384;48.860;9.188;2024-03-08T14:15:46;27.52;;;14.25;;
31818;SDS011;18384;48.860;9.188;2024-03-08T14:18:13;31.12;;;16.37;;
31818;SDS011;18384;48.860;9.188;2024-03-08T14:20:40;32.05;;;15.85;;
31818;SDS011;18384;48.860;9.188;2024-03-08T14:23:07;31.73;;;15.85;;
31818;SDS011;18384;48.860;9.188;2024-03-08T14:25:33;28.50;;;15.63;;
31818;SDS011;18384;48.860;9.188;2024-03-08T14:27:59;25.33;;;14.25;;
31818;SDS011;18384;48.860;9.188;2024-03-08T14:30:32;27.02;;;15.68;;
31818;SDS011;18384;48.860;9.188;2024-03-08T14:33:04;29.23;;;15.05;;
31818;SDS011;18384;48.860;9.188;2024-03-08T14:35:31;28.48;;;15.43;;
31818;SDS011;18384;48.860;9.188;2024-03-08T14:37:57;30.50;;;15.25;;
31818;SDS011;18384;48.860;9.188;2024-03-08T14:40:24;24.45;;;13.15;;
31818;SDS011;18384;48.860;9.188;2024-03-08T14:42:51;26.80;;;14.05;;
31818;SDS011;18384;48.860;9.188;2024-03-08T14:45:17;25.83;;;14.10;;
31818;SDS011;18384;48.860;9.188;2024-03-08T14:47:45;29.17;;;15.32;;
31818;SDS011;18384;48.860;9.188;2024-03-08T14:50:15;27.25;;;14.73;;
31818;SDS011;18384;48.860;9.188;2024-03-08T14:52:45;25.02;;;13.55;;
31818;SDS011;18384;48.860;9.188;2024-03-08T14:55:18;25.83;;;14.40;;
31818;SDS011;18384;48.860;9.188;2024-03-08T14:57:47;23.70;;;13.70;;
31818;SDS011;18384;48.860;9.188;2024-03-08T15:00:16;29.00;;;14.57;;
31818;SDS011;18384;48.860;9.188;2024-03-08T15:02:54;26.27;;;14.15;;
31818;SDS011;18384;48.860;9.188;2024-03-08T15:05:22;26.23;;;14.65;;
31818;SDS011;18384;48.860;9.188;2024-03-08T15:07:57;29.12;;;14.35;;
31818;SDS011;18384;48.860;9.188;2024-03-08T15:10:26;23.87;;;14.30;;